CheckWX is a tool to help pilots better visualize weather data.  It is not intended as a substitute for an official pre-flight weather briefing.

13:48:45 UTC

KYKM TAF
Yakima Air Terminal / McAllister Field Airport
Yakima, Washington, USA
KYKM 221120Z 2212/2312 VRB04KT P6SM VCSH BKN060 OVC080 FM221500 29014KT P6SM SCT060 FM222300 28012KT P6SM BKN250 FM230600 28006KT P6SM BKN250

Oct-22@
12:00 UTC

Oct-22 @ 12:00 UTC

Oct-22@
15:00 UTC

Oct-22 @ 15:00 UTC

KYKM 221120Z 2212/2312 VRB04KT P6SM VCSH BKN060 OVC080
Wind
  • Variable at 4 KTS
Cloud Levels
  • Broken at 6,000' AGL
  • Overcast at 8,000' AGL

Oct-22@
15:00 UTC

Oct-22 @ 15:00 UTC

Oct-22@
23:00 UTC

Oct-22 @ 23:00 UTC

FM221500 29014KT P6SM SCT060

From

From Standard forecast or significant change

Wind
  • 290° at 14 KTS
Cloud Levels
  • Scattered at 6,000' AGL

Oct-22@
23:00 UTC

Oct-22 @ 23:00 UTC

Oct-23@
06:00 UTC

Oct-23 @ 06:00 UTC

FM222300 28012KT P6SM BKN250

From

From Standard forecast or significant change

Wind
  • 280° at 12 KTS
Cloud Levels
  • Broken at 25,000' AGL

Oct-23@
06:00 UTC

Oct-23 @ 06:00 UTC

Oct-23@
12:00 UTC

Oct-23 @ 12:00 UTC

FM230600 28006KT P6SM BKN250

From

From Standard forecast or significant change

Wind
  • 280° at 6 KTS
Cloud Levels
  • Broken at 25,000' AGL